Time;durP1;ratioP1;P1;durP2;ratioP2;P2;SDS_P1;SDS_P2;PMS_P1;PMS_P2;Temp;Humidity;BMP_temperature;BMP_pressure;BME280_temperature;BME280_humidity;BME280_pressure;Samples;Min_cycle;Max_cycle;Signal;HPM_P1;HPM_P2
2023/01/17 00:01:04;;;;;;;5.53;5.03;;;;;;;;;;5091113;28;20441;-52
2023/01/17 00:03:30;;;;;;;7.40;5.53;;;;;;;;;;5091208;28;20427;-52
2023/01/17 00:11:27;;;;;;;6.17;5.60;;;;;;;;;;5090018;28;20432;-53
2023/01/17 00:13:53;;;;;;;6.57;5.97;;;;;;;;;;5091149;28;20452;-54
2023/01/17 00:16:19;;;;;;;6.80;6.20;;;;;;;;;;5091113;28;20234;-53
2023/01/17 00:26:01;;;;;;;7.03;6.33;;;;;;;;;;5091173;28;20312;-53
2023/01/17 01:33:49;;;;;;;8.80;7.90;;;;;;;;;;5089783;28;20421;-50
2023/01/17 01:36:15;;;;;;;9.13;8.17;;;;;;;;;;5089701;28;20555;-49
2023/01/17 01:38:41;;;;;;;9.30;8.30;;;;;;;;;;5089841;28;20508;-49
2023/01/17 01:41:07;;;;;;;8.87;8.00;;;;;;;;;;5089888;28;20912;-51
2023/01/17 01:43:43;;;;;;;9.23;8.33;;;;;;;;;;5090010;28;20195;-49
2023/01/17 01:46:10;;;;;;;9.40;8.47;;;;;;;;;;5089642;28;20843;-49
2023/01/17 01:48:38;;;;;;;7.97;7.17;;;;;;;;;;5089646;28;20843;-50
2023/01/17 01:51:06;;;;;;;8.57;7.67;;;;;;;;;;5089795;28;20447;-51
2023/01/17 01:53:35;;;;;;;7.37;6.60;;;;;;;;;;5089660;28;20990;-49
2023/01/17 01:56:02;;;;;;;8.03;7.23;;;;;;;;;;5089906;28;20531;-50
2023/01/17 01:58:31;;;;;;;7.93;7.13;;;;;;;;;;5089731;28;20933;-50
2023/01/17 02:00:58;;;;;;;8.27;7.40;;;;;;;;;;5089406;28;20464;-50
2023/01/17 02:03:26;;;;;;;8.27;7.07;;;;;;;;;;5089650;28;20444;-50
2023/01/17 02:05:52;;;;;;;7.03;6.33;;;;;;;;;;5089504;28;20448;-50
2023/01/17 02:08:19;;;;;;;6.87;6.17;;;;;;;;;;5089575;28;20488;-49
2023/01/17 02:10:46;;;;;;;7.40;6.70;;;;;;;;;;5089647;28;20443;-50
2023/01/17 02:13:12;;;;;;;9.83;7.30;;;;;;;;;;5089628;28;20432;-50
2023/01/17 02:15:41;;;;;;;7.83;6.90;;;;;;;;;;5089569;28;20440;-50
2023/01/17 02:18:13;;;;;;;7.67;6.87;;;;;;;;;;5089518;28;21030;-50
2023/01/17 02:20:53;;;;;;;8.23;7.10;;;;;;;;;;5089421;28;20441;-50
2023/01/17 02:23:33;;;;;;;7.53;6.73;;;;;;;;;;5089419;28;20439;-51
2023/01/17 02:26:11;;;;;;;7.43;6.63;;;;;;;;;;5089306;28;20521;-52
2023/01/17 02:28:45;;;;;;;6.63;6.03;;;;;;;;;;5089390;28;20483;-51
2023/01/17 02:31:14;;;;;;;6.97;6.27;;;;;;;;;;5089498;28;20534;-51
2023/01/17 02:33:42;;;;;;;7.87;6.70;;;;;;;;;;5091145;28;20531;-51
2023/01/17 02:36:10;;;;;;;7.03;6.33;;;;;;;;;;5092881;28;20478;-52
2023/01/17 02:38:39;;;;;;;6.80;6.13;;;;;;;;;;5092854;28;21036;-52
2023/01/17 02:41:06;;;;;;;6.10;5.50;;;;;;;;;;5093178;28;20448;-51
2023/01/17 02:43:33;;;;;;;6.60;5.90;;;;;;;;;;5092964;28;20477;-52
2023/01/17 02:45:59;;;;;;;7.40;6.30;;;;;;;;;;5092654;28;20675;-52
2023/01/17 02:48:27;;;;;;;5.93;5.33;;;;;;;;;;5092861;28;21046;-53
2023/01/17 02:51:03;;;;;;;6.17;5.50;;;;;;;;;;5092673;28;20433;-53
2023/01/17 02:53:31;;;;;;;6.03;5.07;;;;;;;;;;5092818;28;20452;-52
2023/01/17 02:56:04;;;;;;;5.10;4.60;;;;;;;;;;5092490;28;20433;-52
2023/01/17 02:58:42;;;;;;;5.57;4.73;;;;;;;;;;5092378;28;20445;-53
2023/01/17 03:01:14;;;;;;;4.90;4.50;;;;;;;;;;5092657;28;20441;-53
2023/01/17 03:03:46;;;;;;;4.00;3.63;;;;;;;;;;5092366;28;20447;-53
2023/01/17 03:06:14;;;;;;;4.97;4.30;;;;;;;;;;5092460;28;20985;-52
2023/01/17 03:08:42;;;;;;;3.73;3.43;;;;;;;;;;5092116;28;21004;-49
2023/01/17 03:11:08;;;;;;;4.20;3.80;;;;;;;;;;5092568;28;20484;-51
2023/01/17 03:13:34;;;;;;;3.67;3.30;;;;;;;;;;5092301;28;20531;-51
2023/01/17 03:16:01;;;;;;;3.30;2.80;;;;;;;;;;5091966;28;20950;-51
2023/01/17 03:18:27;;;;;;;3.20;3.00;;;;;;;;;;5092192;28;20437;-52
2023/01/17 03:20:54;;;;;;;3.40;3.10;;;;;;;;;;5091894;28;20907;-51
2023/01/17 03:23:20;;;;;;;4.80;2.70;;;;;;;;;;5092109;28;20472;-52
2023/01/17 03:25:46;;;;;;;2.97;2.77;;;;;;;;;;5092096;28;20459;-51
2023/01/17 03:28:12;;;;;;;3.30;3.00;;;;;;;;;;5091806;28;20223;-51
2023/01/17 03:30:38;;;;;;;4.17;2.90;;;;;;;;;;5091937;28;20501;-51
2023/01/17 03:33:04;;;;;;;3.70;2.87;;;;;;;;;;5091781;28;20199;-51
2023/01/17 03:35:30;;;;;;;4.40;3.00;;;;;;;;;;5091738;28;20230;-51
2023/01/17 03:37:58;;;;;;;3.40;3.10;;;;;;;;;;5092089;28;20440;-51
2023/01/17 03:40:25;;;;;;;3.07;2.80;;;;;;;;;;5091691;28;20810;-51
2023/01/17 03:42:51;;;;;;;3.10;2.90;;;;;;;;;;5091710;28;20436;-52
2023/01/17 03:45:16;;;;;;;3.20;2.90;;;;;;;;;;5091800;28;20444;-51
2023/01/17 03:47:43;;;;;;;3.40;3.10;;;;;;;;;;5091563;28;20575;-51
2023/01/17 03:50:09;;;;;;;3.43;3.13;;;;;;;;;;5091732;28;20191;-51
2023/01/17 03:52:35;;;;;;;3.10;2.90;;;;;;;;;;5091485;28;20452;-51
2023/01/17 03:55:03;;;;;;;3.13;2.90;;;;;;;;;;5091454;28;20460;-51
2023/01/17 03:57:30;;;;;;;3.30;3.00;;;;;;;;;;5091541;28;20198;-51
2023/01/17 03:59:56;;;;;;;2.80;2.60;;;;;;;;;;5091323;28;20451;-51
2023/01/17 04:02:23;;;;;;;3.23;2.80;;;;;;;;;;5091480;28;20457;-50
2023/01/17 04:04:49;;;;;;;2.70;2.50;;;;;;;;;;5091038;28;20844;-50
2023/01/17 04:07:14;;;;;;;2.83;2.60;;;;;;;;;;5091155;28;20481;-50
2023/01/17 04:09:40;;;;;;;2.37;2.10;;;;;;;;;;5091118;28;20588;-51
2023/01/17 04:12:08;;;;;;;2.33;2.23;;;;;;;;;;5091175;28;20195;-49
2023/01/17 04:14:34;;;;;;;4.13;2.47;;;;;;;;;;5091138;28;20201;-49
2023/01/17 04:17:01;;;;;;;2.30;2.20;;;;;;;;;;5091082;28;20433;-49
2023/01/17 04:19:27;;;;;;;2.20;2.00;;;;;;;;;;5090853;28;20433;-49
2023/01/17 04:21:53;;;;;;;3.10;2.37;;;;;;;;;;5090938;28;20425;-49
2023/01/17 04:24:19;;;;;;;2.23;2.10;;;;;;;;;;5091221;28;20914;-50
2023/01/17 04:26:45;;;;;;;2.20;2.10;;;;;;;;;;5090894;28;20234;-49
2023/01/17 04:29:12;;;;;;;2.10;1.90;;;;;;;;;;5090820;28;20205;-49
2023/01/17 04:31:38;;;;;;;2.27;2.00;;;;;;;;;;5090568;28;20219;-49
2023/01/17 04:34:04;;;;;;;2.10;2.00;;;;;;;;;;5090699;28;20500;-50
2023/01/17 04:36:31;;;;;;;1.90;1.80;;;;;;;;;;5090677;28;20230;-50
2023/01/17 04:38:57;;;;;;;2.50;1.50;;;;;;;;;;5090689;28;20198;-50
2023/01/17 04:41:23;;;;;;;2.17;1.60;;;;;;;;;;5090902;28;20433;-49
2023/01/17 04:43:49;;;;;;;1.50;1.40;;;;;;;;;;5090516;28;20678;-50
2023/01/17 04:46:16;;;;;;;1.77;1.40;;;;;;;;;;5090819;28;20201;-50
2023/01/17 04:48:42;;;;;;;1.40;1.30;;;;;;;;;;5090392;28;20249;-50
2023/01/17 04:51:08;;;;;;;1.27;1.27;;;;;;;;;;5090591;28;20931;-50
2023/01/17 04:53:34;;;;;;;1.00;1.00;;;;;;;;;;5090468;28;20199;-50
2023/01/17 04:56:00;;;;;;;2.87;1.10;;;;;;;;;;5089664;28;20222;-50
2023/01/17 04:58:26;;;;;;;1.90;1.40;;;;;;;;;;5090440;28;20464;-51
2023/01/17 05:00:53;;;;;;;1.20;1.10;;;;;;;;;;5090224;28;20437;-50
2023/01/17 05:03:21;;;;;;;1.10;1.10;;;;;;;;;;5090356;28;20465;-50
2023/01/17 05:05:48;;;;;;;1.23;1.13;;;;;;;;;;5090306;28;20452;-51
2023/01/17 05:08:14;;;;;;;2.40;1.30;;;;;;;;;;5090180;28;20469;-51
2023/01/17 05:10:40;;;;;;;2.00;1.30;;;;;;;;;;5090271;28;20437;-51
2023/01/17 05:13:06;;;;;;;2.10;1.20;;;;;;;;;;5090225;28;20792;-50
2023/01/17 05:15:32;;;;;;;1.37;1.20;;;;;;;;;;5090149;28;20429;-50
2023/01/17 05:17:58;;;;;;;2.10;1.30;;;;;;;;;;5090147;28;20260;-49
2023/01/17 05:20:26;;;;;;;4.27;1.20;;;;;;;;;;5090186;28;20722;-50
2023/01/17 05:22:54;;;;;;;2.10;1.10;;;;;;;;;;5089927;28;20199;-50
2023/01/17 05:25:20;;;;;;;1.10;1.10;;;;;;;;;;5090043;28;20445;-51
2023/01/17 05:27:46;;;;;;;1.10;1.10;;;;;;;;;;5089762;28;20480;-51
2023/01/17 05:30:12;;;;;;;1.90;1.27;;;;;;;;;;5089975;28;20439;-51
2023/01/17 05:32:38;;;;;;;2.10;1.40;;;;;;;;;;5089846;28;20203;-51
2023/01/17 05:35:04;;;;;;;1.43;1.20;;;;;;;;;;5089450;28;20437;-52
2023/01/17 05:37:32;;;;;;;1.40;1.30;;;;;;;;;;5089908;28;20244;-51
2023/01/17 05:39:58;;;;;;;1.13;1.10;;;;;;;;;;5089709;28;20444;-50
2023/01/17 05:42:23;;;;;;;1.57;1.20;;;;;;;;;;5089861;28;20437;-50
2023/01/17 05:44:49;;;;;;;1.00;1.00;;;;;;;;;;5089714;28;20194;-50
2023/01/17 05:47:15;;;;;;;1.00;1.00;;;;;;;;;;5089732;28;20766;-50
2023/01/17 05:49:41;;;;;;;1.00;1.00;;;;;;;;;;5089649;28;20260;-51
2023/01/17 05:52:08;;;;;;;1.00;1.00;;;;;;;;;;5089623;28;20191;-51
2023/01/17 05:54:35;;;;;;;1.50;1.27;;;;;;;;;;5089855;28;20684;-49
2023/01/17 05:57:01;;;;;;;1.30;1.20;;;;;;;;;;5089689;28;20444;-49
2023/01/17 05:59:27;;;;;;;1.33;1.20;;;;;;;;;;5089544;28;20809;-50
2023/01/17 06:01:53;;;;;;;1.57;1.17;;;;;;;;;;5089544;28;20203;-51
2023/01/17 06:04:19;;;;;;;1.87;1.10;;;;;;;;;;5089436;28;20195;-52
2023/01/17 06:06:45;;;;;;;1.47;1.37;;;;;;;;;;5089507;28;20642;-52
2023/01/17 06:09:11;;;;;;;1.53;1.30;;;;;;;;;;5092460;28;20428;-51
2023/01/17 06:11:39;;;;;;;1.83;1.20;;;;;;;;;;5093636;28;20675;-51
2023/01/17 06:14:05;;;;;;;3.30;1.27;;;;;;;;;;5093408;28;20203;-51
2023/01/17 06:16:30;;;;;;;1.27;1.17;;;;;;;;;;5093159;28;20440;-50
2023/01/17 06:18:56;;;;;;;2.03;1.20;;;;;;;;;;5093159;28;20278;-50
2023/01/17 06:21:22;;;;;;;2.93;1.60;;;;;;;;;;5093348;28;20195;-51
2023/01/17 06:23:48;;;;;;;1.37;1.27;;;;;;;;;;5093058;28;20218;-50
2023/01/17 06:26:15;;;;;;;1.30;1.20;;;;;;;;;;5093061;28;20845;-50
2023/01/17 06:28:42;;;;;;;1.87;1.20;;;;;;;;;;5093005;28;20225;-50
2023/01/17 06:31:08;;;;;;;2.43;1.50;;;;;;;;;;5092745;28;20433;-49
2023/01/17 06:33:34;;;;;;;2.37;1.30;;;;;;;;;;5092711;28;20436;-50
2023/01/17 06:36:01;;;;;;;2.97;1.30;;;;;;;;;;5092631;28;20507;-50
2023/01/17 06:38:28;;;;;;;1.80;1.57;;;;;;;;;;5093058;28;20980;-50
2023/01/17 06:40:55;;;;;;;1.70;1.60;;;;;;;;;;5092619;28;20440;-50
2023/01/17 06:43:21;;;;;;;3.93;1.60;;;;;;;;;;5092928;28;20429;-50
2023/01/17 06:45:48;;;;;;;1.83;1.70;;;;;;;;;;5092904;28;20539;-50
2023/01/17 06:48:14;;;;;;;4.10;2.00;;;;;;;;;;5092333;28;20465;-50
2023/01/17 06:50:40;;;;;;;4.03;1.70;;;;;;;;;;5092781;28;20439;-50
2023/01/17 06:53:06;;;;;;;3.27;2.00;;;;;;;;;;5092509;28;20209;-50
2023/01/17 06:55:33;;;;;;;3.47;2.03;;;;;;;;;;5092697;28;20228;-51
2023/01/17 06:58:01;;;;;;;2.10;1.90;;;;;;;;;;5092541;28;20445;-51
2023/01/17 07:00:27;;;;;;;2.20;2.00;;;;;;;;;;5092405;28;20580;-51
2023/01/17 07:02:54;;;;;;;2.70;2.13;;;;;;;;;;5092387;28;20443;-51
2023/01/17 07:05:21;;;;;;;2.53;2.20;;;;;;;;;;5092608;28;20467;-50
2023/01/17 07:07:47;;;;;;;2.70;2.00;;;;;;;;;;5092244;28;20477;-50
2023/01/17 07:10:14;;;;;;;2.97;2.10;;;;;;;;;;5092476;28;20432;-50
2023/01/17 07:12:40;;;;;;;2.77;2.00;;;;;;;;;;5092244;28;20490;-50
2023/01/17 07:15:06;;;;;;;2.80;2.20;;;;;;;;;;5092103;28;20437;-50
2023/01/17 07:17:33;;;;;;;2.40;2.20;;;;;;;;;;5092260;28;20257;-50
2023/01/17 07:20:00;;;;;;;5.43;2.40;;;;;;;;;;5091428;28;20498;-50
2023/01/17 07:22:26;;;;;;;3.87;2.47;;;;;;;;;;5091942;28;20946;-50
2023/01/17 07:24:57;;;;;;;3.50;2.27;;;;;;;;;;5092040;28;20429;-51
2023/01/17 07:27:23;;;;;;;2.67;2.10;;;;;;;;;;5091953;28;20724;-52
2023/01/17 07:29:49;;;;;;;5.67;2.67;;;;;;;;;;5091916;28;20860;-52
2023/01/17 07:32:15;;;;;;;3.30;2.30;;;;;;;;;;5092189;28;20437;-51
2023/01/17 07:34:41;;;;;;;4.73;2.33;;;;;;;;;;5091740;28;20203;-52
2023/01/17 07:37:08;;;;;;;3.30;2.50;;;;;;;;;;5091863;28;20534;-52
2023/01/17 07:39:36;;;;;;;4.47;2.20;;;;;;;;;;5091768;28;20195;-52
2023/01/17 07:42:02;;;;;;;5.37;2.50;;;;;;;;;;5091617;28;20447;-52
2023/01/17 07:44:28;;;;;;;4.43;2.20;;;;;;;;;;5091826;28;20804;-53
2023/01/17 07:46:54;;;;;;;5.83;2.80;;;;;;;;;;5091252;28;20436;-54
2023/01/17 07:49:20;;;;;;;4.37;2.20;;;;;;;;;;5091547;28;20482;-54
2023/01/17 07:51:46;;;;;;;2.97;2.50;;;;;;;;;;5091320;28;20433;-54
2023/01/17 07:54:13;;;;;;;3.10;2.07;;;;;;;;;;5091394;28;20645;-55
2023/01/17 07:56:44;;;;;;;4.00;2.10;;;;;;;;;;5091462;28;20947;-54
2023/01/17 07:59:10;;;;;;;3.27;2.33;;;;;;;;;;5091544;28;20429;-54
2023/01/17 08:01:36;;;;;;;3.50;2.07;;;;;;;;;;5091375;28;20524;-55
2023/01/17 08:04:02;;;;;;;3.97;2.30;;;;;;;;;;5091280;28;20597;-54
2023/01/17 08:06:28;;;;;;;2.10;1.90;;;;;;;;;;5091170;28;20558;-55
2023/01/17 08:08:57;;;;;;;4.57;2.00;;;;;;;;;;5090972;28;20901;-55
2023/01/17 08:11:25;;;;;;;3.20;2.10;;;;;;;;;;5091234;28;20430;-55
2023/01/17 08:13:56;;;;;;;2.20;1.90;;;;;;;;;;5091048;28;20445;-55
2023/01/17 08:16:22;;;;;;;3.00;1.93;;;;;;;;;;5091115;28;20457;-54
2023/01/17 08:18:48;;;;;;;4.70;2.30;;;;;;;;;;5091346;28;20449;-54
2023/01/17 08:21:15;;;;;;;5.43;2.30;;;;;;;;;;5090858;28;20439;-54
2023/01/17 08:23:41;;;;;;;2.20;1.77;;;;;;;;;;5090897;28;20448;-54
2023/01/17 08:26:07;;;;;;;3.20;1.90;;;;;;;;;;5090737;28;20433;-54
2023/01/17 08:28:34;;;;;;;4.03;1.90;;;;;;;;;;5090957;28;20703;-54
2023/01/17 08:31:05;;;;;;;2.63;2.13;;;;;;;;;;5090153;28;20440;-54
2023/01/17 08:33:31;;;;;;;3.27;1.70;;;;;;;;;;5090753;28;20480;-54
2023/01/17 08:35:57;;;;;;;3.80;1.77;;;;;;;;;;5090424;28;20785;-54
2023/01/17 08:38:24;;;;;;;2.83;1.87;;;;;;;;;;5090838;28;20432;-54
2023/01/17 08:40:50;;;;;;;4.03;1.73;;;;;;;;;;5090889;28;20231;-54
2023/01/17 08:43:16;;;;;;;3.17;1.53;;;;;;;;;;5090506;28;20742;-54
2023/01/17 08:45:47;;;;;;;3.77;1.73;;;;;;;;;;5090906;28;20429;-54
2023/01/17 08:48:13;;;;;;;3.97;2.17;;;;;;;;;;5090405;28;20898;-54
2023/01/17 08:50:39;;;;;;;3.30;1.70;;;;;;;;;;5090436;28;20516;-54
2023/01/17 08:53:05;;;;;;;4.23;2.20;;;;;;;;;;5090500;28;20548;-54
2023/01/17 08:55:32;;;;;;;4.03;1.80;;;;;;;;;;5090298;28;20186;-54
2023/01/17 08:57:58;;;;;;;3.83;2.00;;;;;;;;;;5090105;28;20214;-54
2023/01/17 09:00:25;;;;;;;4.43;2.10;;;;;;;;;;5090330;28;20511;-54
2023/01/17 09:02:53;;;;;;;7.50;1.80;;;;;;;;;;5089945;28;20763;-54
2023/01/17 09:05:19;;;;;;;2.47;1.50;;;;;;;;;;5090244;28;20532;-54
2023/01/17 09:07:45;;;;;;;3.97;2.13;;;;;;;;;;5090177;28;20496;-54
2023/01/17 09:10:11;;;;;;;3.33;1.50;;;;;;;;;;5089982;28;20483;-54
2023/01/17 09:12:39;;;;;;;2.57;1.67;;;;;;;;;;5090212;28;20198;-55
2023/01/17 09:15:05;;;;;;;2.83;1.70;;;;;;;;;;5090150;28;20260;-54
2023/01/17 09:17:31;;;;;;;2.37;1.50;;;;;;;;;;5090091;28;20209;-54
2023/01/17 09:19:58;;;;;;;2.23;1.30;;;;;;;;;;5090114;28;20207;-55
2023/01/17 09:22:24;;;;;;;3.63;1.40;;;;;;;;;;5089860;28;20256;-54
2023/01/17 09:24:51;;;;;;;1.27;1.13;;;;;;;;;;5089853;28;20199;-55
2023/01/17 09:27:17;;;;;;;2.93;1.37;;;;;;;;;;5089893;28;20779;-54
2023/01/17 09:29:43;;;;;;;1.77;1.60;;;;;;;;;;5090028;28;20278;-55
2023/01/17 09:32:09;;;;;;;2.53;1.20;;;;;;;;;;5089871;28;20207;-54
2023/01/17 09:34:34;;;;;;;2.03;1.10;;;;;;;;;;5089795;28;20195;-54
2023/01/17 09:37:02;;;;;;;2.57;1.13;;;;;;;;;;5089554;28;20262;-53
2023/01/17 09:39:28;;;;;;;2.33;1.20;;;;;;;;;;5089823;28;20610;-54
2023/01/17 09:41:59;;;;;;;2.03;1.30;;;;;;;;;;5090563;28;20187;-53
2023/01/17 09:44:26;;;;;;;2.50;1.60;;;;;;;;;;5094246;28;20191;-54
2023/01/17 09:46:54;;;;;;;2.03;1.13;;;;;;;;;;5094226;28;20203;-54
2023/01/17 09:49:30;;;;;;;2.70;1.30;;;;;;;;;;5093668;28;20645;-54
2023/01/17 09:51:56;;;;;;;3.13;1.47;;;;;;;;;;5093725;28;20560;-53
2023/01/17 09:54:24;;;;;;;3.73;1.37;;;;;;;;;;5093859;28;20203;-54
2023/01/17 09:56:54;;;;;;;1.87;1.20;;;;;;;;;;5093643;28;20202;-54
2023/01/17 09:59:26;;;;;;;2.20;1.20;;;;;;;;;;5093825;28;20289;-54
2023/01/17 10:01:56;;;;;;;2.50;1.37;;;;;;;;;;5093740;28;20550;-52
2023/01/17 10:04:32;;;;;;;2.27;1.30;;;;;;;;;;5093708;28;20202;-52
2023/01/17 10:07:05;;;;;;;3.80;1.30;;;;;;;;;;5093661;28;20237;-52
2023/01/17 10:09:40;;;;;;;1.73;1.30;;;;;;;;;;5094057;28;20199;-51
2023/01/17 10:12:12;;;;;;;3.37;1.60;;;;;;;;;;5093481;28;20206;-53
2023/01/17 10:14:53;;;;;;;3.43;1.43;;;;;;;;;;5093581;28;20536;-53
2023/01/17 10:17:24;;;;;;;1.57;1.27;;;;;;;;;;5080456;28;20645;-51
2023/01/17 10:19:59;;;;;;;3.13;1.27;;;;;;;;;;5080330;28;20202;-52
2023/01/17 10:22:32;;;;;;;2.40;1.43;;;;;;;;;;5092983;28;20206;-52
2023/01/17 10:25:07;;;;;;;2.77;1.23;;;;;;;;;;5093531;28;20203;-51
2023/01/17 10:27:34;;;;;;;2.87;1.47;;;;;;;;;;5093063;28;20250;-52
2023/01/17 10:30:01;;;;;;;2.77;1.30;;;;;;;;;;5093059;28;20199;-52
2023/01/17 10:32:29;;;;;;;3.17;1.20;;;;;;;;;;5093223;28;20289;-51
2023/01/17 10:34:55;;;;;;;2.17;1.30;;;;;;;;;;5092825;28;20191;-51
2023/01/17 10:37:23;;;;;;;4.30;1.80;;;;;;;;;;5091418;28;20196;-52
2023/01/17 10:39:51;;;;;;;2.73;1.30;;;;;;;;;;5091443;28;20320;-52
2023/01/17 10:42:20;;;;;;;2.83;1.43;;;;;;;;;;5092415;28;20657;-53
2023/01/17 10:44:49;;;;;;;3.87;1.40;;;;;;;;;;5092637;28;20674;-53
2023/01/17 10:47:19;;;;;;;4.23;1.50;;;;;;;;;;5092622;28;20298;-53
2023/01/17 10:49:47;;;;;;;1.87;1.40;;;;;;;;;;5092817;28;20203;-53
2023/01/17 10:52:18;;;;;;;3.57;1.60;;;;;;;;;;5092823;28;20210;-53
2023/01/17 10:54:52;;;;;;;5.00;1.33;;;;;;;;;;5091730;28;20565;-53
2023/01/17 10:57:21;;;;;;;5.77;1.93;;;;;;;;;;5092463;28;20783;-52
2023/01/17 10:59:48;;;;;;;3.00;1.73;;;;;;;;;;5092430;28;20553;-53
2023/01/17 11:02:17;;;;;;;3.73;1.77;;;;;;;;;;5092533;28;20667;-53
2023/01/17 11:04:47;;;;;;;3.17;1.40;;;;;;;;;;5092432;28;20190;-53
2023/01/17 11:07:14;;;;;;;3.37;1.53;;;;;;;;;;5092178;28;20205;-53
2023/01/17 11:09:41;;;;;;;3.93;1.57;;;;;;;;;;5092571;28;20566;-53
2023/01/17 11:12:15;;;;;;;3.17;1.40;;;;;;;;;;5092239;28;20190;-53
2023/01/17 11:14:48;;;;;;;4.53;1.93;;;;;;;;;;5092492;28;20190;-53
2023/01/17 11:17:19;;;;;;;1.70;1.30;;;;;;;;;;5092040;28;20233;-53
2023/01/17 11:19:50;;;;;;;1.87;1.23;;;;;;;;;;5092033;28;20669;-53
2023/01/17 11:22:16;;;;;;;2.73;1.50;;;;;;;;;;5092114;28;20285;-53
2023/01/17 11:24:47;;;;;;;3.17;1.77;;;;;;;;;;5092247;28;20201;-53
2023/01/17 11:27:22;;;;;;;3.60;1.27;;;;;;;;;;5091811;28;20195;-53
2023/01/17 11:30:01;;;;;;;3.33;1.57;;;;;;;;;;5091921;28;20205;-53
2023/01/17 11:32:29;;;;;;;2.90;1.60;;;;;;;;;;5091625;28;20190;-53
2023/01/17 11:35:24;;;;;;;2.27;1.47;;;;;;;;;;5091503;28;20199;-53
2023/01/17 11:37:51;;;;;;;2.53;1.80;;;;;;;;;;5055902;28;20203;-53
2023/01/17 11:40:20;;;;;;;3.60;1.47;;;;;;;;;;5091514;28;20205;-53
2023/01/17 11:42:46;;;;;;;3.00;1.53;;;;;;;;;;5091829;28;20513;-53
2023/01/17 11:45:25;;;;;;;4.60;1.50;;;;;;;;;;5091434;28;20680;-53
2023/01/17 11:48:04;;;;;;;2.60;1.47;;;;;;;;;;5091702;28;20229;-53
2023/01/17 11:50:30;;;;;;;5.73;1.77;;;;;;;;;;5091856;28;20198;-53
2023/01/17 11:53:04;;;;;;;3.93;1.60;;;;;;;;;;5091853;28;20209;-53
2023/01/17 11:55:30;;;;;;;5.77;1.43;;;;;;;;;;5089638;28;20215;-53
2023/01/17 11:57:56;;;;;;;2.87;1.90;;;;;;;;;;5091024;28;20649;-53
2023/01/17 12:00:27;;;;;;;3.10;1.70;;;;;;;;;;5091145;28;20720;-53
2023/01/17 12:03:05;;;;;;;2.20;1.60;;;;;;;;;;5090945;28;20209;-53
2023/01/17 12:05:40;;;;;;;3.97;1.73;;;;;;;;;;5089896;28;20578;-53
2023/01/17 12:08:13;;;;;;;3.33;1.53;;;;;;;;;;5090554;28;20226;-52
2023/01/17 12:10:44;;;;;;;3.97;1.63;;;;;;;;;;5090936;28;20570;-53
2023/01/17 12:18:54;;;;;;;4.70;1.77;;;;;;;;;;5090791;28;20256;-54
2023/01/17 12:21:24;;;;;;;4.57;1.93;;;;;;;;;;5091141;28;20195;-53
2023/01/17 12:23:57;;;;;;;2.40;1.67;;;;;;;;;;5090853;28;20199;-54
2023/01/17 12:26:29;;;;;;;4.40;2.03;;;;;;;;;;5091145;28;20274;-54
2023/01/17 12:29:10;;;;;;;4.00;1.70;;;;;;;;;;5090897;28;20259;-53
2023/01/17 12:31:42;;;;;;;4.40;1.80;;;;;;;;;;5088092;28;20203;-54
2023/01/17 12:34:17;;;;;;;2.67;1.80;;;;;;;;;;5090679;28;20207;-53
2023/01/17 12:36:45;;;;;;;4.17;1.83;;;;;;;;;;5090502;28;20654;-53
2023/01/17 12:39:13;;;;;;;3.50;1.80;;;;;;;;;;5090639;28;20203;-54
2023/01/17 12:41:44;;;;;;;5.20;1.97;;;;;;;;;;5090448;28;20586;-53
2023/01/17 12:44:11;;;;;;;1.93;1.60;;;;;;;;;;5090301;28;20260;-52
2023/01/17 12:46:42;;;;;;;3.03;1.83;;;;;;;;;;5090213;28;20263;-54
2023/01/17 12:49:16;;;;;;;3.30;1.93;;;;;;;;;;5090055;28;20717;-53
2023/01/17 12:51:43;;;;;;;4.43;1.97;;;;;;;;;;5090464;28;20202;-53
2023/01/17 12:54:14;;;;;;;5.00;2.33;;;;;;;;;;5090247;28;20199;-53
2023/01/17 12:56:45;;;;;;;4.13;2.03;;;;;;;;;;5090188;28;20252;-53
2023/01/17 12:59:14;;;;;;;3.67;2.00;;;;;;;;;;5090314;28;20183;-54
2023/01/17 13:01:44;;;;;;;5.30;2.10;;;;;;;;;;5090141;28;20209;-53
2023/01/17 13:04:17;;;;;;;3.93;1.80;;;;;;;;;;5089987;28;20199;-54
2023/01/17 13:06:47;;;;;;;4.10;1.93;;;;;;;;;;5090223;28;20214;-53
2023/01/17 13:09:15;;;;;;;3.83;1.80;;;;;;;;;;5089977;28;20226;-53
2023/01/17 13:11:44;;;;;;;6.33;2.20;;;;;;;;;;5090019;28;20840;-53
2023/01/17 13:14:10;;;;;;;5.73;2.20;;;;;;;;;;5089940;28;20464;-53
2023/01/17 13:16:38;;;;;;;4.97;2.70;;;;;;;;;;5089865;28;20199;-53
2023/01/17 13:19:11;;;;;;;4.27;2.10;;;;;;;;;;5090084;28;20210;-53
2023/01/17 13:21:37;;;;;;;5.93;2.10;;;;;;;;;;5090151;28;20499;-53
2023/01/17 13:24:10;;;;;;;3.67;2.20;;;;;;;;;;5089950;28;20217;-53
2023/01/17 13:26:43;;;;;;;5.67;2.60;;;;;;;;;;5088612;28;20305;-53
2023/01/17 13:29:15;;;;;;;4.43;2.33;;;;;;;;;;5089877;28;20223;-53
2023/01/17 13:31:46;;;;;;;5.07;2.53;;;;;;;;;;5089740;28;20416;-53
2023/01/17 13:34:22;;;;;;;4.27;2.30;;;;;;;;;;5089605;28;20233;-53
2023/01/17 13:36:55;;;;;;;4.57;2.43;;;;;;;;;;5089512;28;20250;-52
2023/01/17 13:39:39;;;;;;;3.27;2.40;;;;;;;;;;5089831;28;20594;-52
2023/01/17 13:42:11;;;;;;;4.93;2.30;;;;;;;;;;5089608;28;20729;-52
2023/01/17 13:44:37;;;;;;;4.77;2.20;;;;;;;;;;5089810;28;20568;-52
2023/01/17 13:47:05;;;;;;;4.47;2.47;;;;;;;;;;5089253;28;20806;-52
2023/01/17 13:49:33;;;;;;;7.90;2.33;;;;;;;;;;5089406;28;20222;-53
2023/01/17 13:52:06;;;;;;;3.20;2.23;;;;;;;;;;5089480;28;20835;-53
2023/01/17 13:54:32;;;;;;;3.53;2.63;;;;;;;;;;5089794;28;20559;-52
2023/01/17 13:57:19;;;;;;;5.43;3.00;;;;;;;;;;5089441;28;20245;-53
2023/01/17 13:59:45;;;;;;;4.47;2.73;;;;;;;;;;5082739;28;20268;-52
2023/01/17 14:02:26;;;;;;;4.67;3.27;;;;;;;;;;5089426;28;20657;-53
2023/01/17 14:05:10;;;;;;;3.87;2.50;;;;;;;;;;5089391;28;20202;-53
2023/01/17 14:07:40;;;;;;;5.47;3.10;;;;;;;;;;5089273;28;20521;-53
2023/01/17 14:10:16;;;;;;;4.80;2.67;;;;;;;;;;5089452;28;20441;-54
2023/01/17 14:12:42;;;;;;;6.23;2.40;;;;;;;;;;5089660;28;20201;-54
2023/01/17 14:15:18;;;;;;;4.30;2.50;;;;;;;;;;5089138;28;20564;-52
2023/01/17 14:17:54;;;;;;;5.27;3.03;;;;;;;;;;5089158;28;20194;-52
2023/01/17 14:20:27;;;;;;;6.53;2.97;;;;;;;;;;5089147;28;20436;-53
2023/01/17 14:22:55;;;;;;;2.93;2.60;;;;;;;;;;5089428;28;20217;-53
2023/01/17 14:25:22;;;;;;;5.43;3.03;;;;;;;;;;5089119;28;20734;-53
2023/01/17 14:27:49;;;;;;;6.97;3.30;;;;;;;;;;5088933;28;20726;-52
2023/01/17 14:30:18;;;;;;;7.20;3.20;;;;;;;;;;5091870;28;20616;-52
2023/01/17 14:33:07;;;;;;;4.50;3.33;;;;;;;;;;5092943;28;20440;-52
2023/01/17 14:35:35;;;;;;;6.80;3.23;;;;;;;;;;5093000;28;20250;-52
2023/01/17 14:38:04;;;;;;;5.37;3.67;;;;;;;;;;5092699;28;20507;-52
2023/01/17 14:40:31;;;;;;;5.63;3.20;;;;;;;;;;5092863;28;20456;-52
2023/01/17 14:43:00;;;;;;;4.57;3.50;;;;;;;;;;5092708;28;20459;-52
2023/01/17 14:45:27;;;;;;;8.60;4.40;;;;;;;;;;5092710;28;21245;-52
2023/01/17 14:47:53;;;;;;;5.57;3.10;;;;;;;;;;5092443;28;20226;-52
2023/01/17 14:50:21;;;;;;;6.67;3.57;;;;;;;;;;5092357;28;20497;-52
2023/01/17 14:53:07;;;;;;;4.90;3.20;;;;;;;;;;5092465;28;20290;-52
2023/01/17 14:55:33;;;;;;;4.93;4.17;;;;;;;;;;5092517;28;20509;-52
2023/01/17 14:57:58;;;;;;;4.93;3.50;;;;;;;;;;5092495;28;20859;-52
2023/01/17 15:00:28;;;;;;;6.87;4.00;;;;;;;;;;5092469;28;20195;-52
2023/01/17 15:02:54;;;;;;;8.00;4.10;;;;;;;;;;5092276;28;20725;-52
2023/01/17 15:05:21;;;;;;;6.13;3.77;;;;;;;;;;5092160;28;20528;-52
2023/01/17 15:07:51;;;;;;;4.93;4.40;;;;;;;;;;5091873;28;20469;-52
2023/01/17 15:10:21;;;;;;;6.57;4.03;;;;;;;;;;5091861;28;20928;-52
2023/01/17 15:12:48;;;;;;;7.67;4.10;;;;;;;;;;5092027;28;20947;-52
2023/01/17 15:15:27;;;;;;;11.67;4.63;;;;;;;;;;5092018;28;20924;-52
2023/01/17 15:18:07;;;;;;;6.37;3.93;;;;;;;;;;5092188;28;20431;-52
2023/01/17 15:20:33;;;;;;;7.30;4.63;;;;;;;;;;5091908;28;20436;-52
2023/01/17 15:22:59;;;;;;;5.27;4.30;;;;;;;;;;5091970;28;20463;-51
2023/01/17 15:25:26;;;;;;;5.20;4.37;;;;;;;;;;5091711;28;20846;-51
2023/01/17 15:27:52;;;;;;;6.70;4.10;;;;;;;;;;5091520;28;20507;-52
2023/01/17 15:30:18;;;;;;;5.27;3.97;;;;;;;;;;5091802;28;20444;-52
2023/01/17 15:32:46;;;;;;;5.50;3.97;;;;;;;;;;5091562;28;20244;-52
2023/01/17 15:35:16;;;;;;;6.13;4.40;;;;;;;;;;5091430;28;20471;-52
2023/01/17 15:37:41;;;;;;;6.70;4.20;;;;;;;;;;5091737;28;20451;-52
2023/01/17 15:40:15;;;;;;;8.13;4.10;;;;;;;;;;5091376;28;20441;-52
2023/01/17 15:42:43;;;;;;;8.97;4.70;;;;;;;;;;5091920;28;20230;-52
2023/01/17 15:45:11;;;;;;;7.73;4.47;;;;;;;;;;5091179;28;20516;-52
2023/01/17 15:47:38;;;;;;;7.80;5.73;;;;;;;;;;5091116;28;20927;-52
2023/01/17 15:50:26;;;;;;;10.70;6.30;;;;;;;;;;5089698;28;20430;-52
2023/01/17 15:52:53;;;;;;;10.07;7.07;;;;;;;;;;5091481;28;20452;-52
2023/01/17 15:55:21;;;;;;;12.37;8.17;;;;;;;;;;5091175;28;20444;-52
2023/01/17 15:57:48;;;;;;;15.87;10.27;;;;;;;;;;5091133;28;20484;-52
2023/01/17 16:00:20;;;;;;;15.13;10.03;;;;;;;;;;5091101;28;20468;-52
2023/01/17 16:02:48;;;;;;;14.77;8.70;;;;;;;;;;5091197;28;20446;-51
2023/01/17 16:05:37;;;;;;;11.07;7.17;;;;;;;;;;5091032;28;20896;-54
2023/01/17 16:08:22;;;;;;;13.17;7.77;;;;;;;;;;5090984;28;21028;-52
2023/01/17 16:10:52;;;;;;;12.70;8.97;;;;;;;;;;5091317;28;20783;-52
2023/01/17 16:13:20;;;;;;;13.03;10.03;;;;;;;;;;5091035;28;20476;-51
2023/01/17 16:15:46;;;;;;;12.27;8.40;;;;;;;;;;5090968;28;20448;-52